Ivangorod, Russia
Current Conditions -  °F | °C
As of 3:30 AM on Tuesday 21 Oct 2014 (Local Time) from ULLI Reporting Station
Overcast Overcast  
Wind Chill: 27°   Ceiling: 1300
Heat Index: 36°   Visibility: 6mi
Dew Point: 32°   Wind: 13mph
Humidity: 87%   Direction: 20°NNE
Pressure: 29.5"   Gusts: NA
Location:  59.37°N, 28.22°E
Report Text: ULLI 210030Z 02006MPS 9999 OVC013 02/00 Q0999 60290050 10//////NOSIG
Loading
Personal Weather Stations






























Interactive Weather Map
Tropical Storm Tracking
New forecast layout! Learn more

10-Day Weather Forecast

Advertisements
Track Severe Weather on mobile